Time,TemperatureF,DewpointF,PressureIn,WindDirection,WindDirectionDegrees,WindSpeedMPH,WindSpeedGustMPH,Humidity,HourlyPrecipIn,Conditions,Clouds,dailyrainin,SoftwareType,DateUTC
2016-08-25 00:04:00,73.4,71.2,30.05,ENE,73,0.0,0.0,93,0.00,,,0.00,HR-IXPWINDi_r2_v1.2.,2016-08-25 04:04:00,
2016-08-25 00:09:00,73.4,71.5,30.06,ENE,73,0.0,0.0,94,0.00,,,0.00,HR-IXPWINDi_r2_v1.2.,2016-08-25 04:09:00,
2016-08-25 00:14:00,73.2,71.3,30.05,ENE,74,0.0,0.0,94,0.00,,,0.00,HR-IXPWINDi_r2_v1.2.,2016-08-25 04:14:00,
2016-08-25 00:19:00,73.2,71.3,30.05,ENE,73,0.0,0.0,94,0.00,,,0.00,HR-IXPWINDi_r2_v1.2.,2016-08-25 04:19:00,
2016-08-25 00:24:00,73.1,71.2,30.05,ENE,73,0.0,1.0,94,0.00,,,0.00,HR-IXPWINDi_r2_v1.2.,2016-08-25 04:24:00,
2016-08-25 00:29:00,73.0,71.1,30.05,ENE,73,0.0,1.0,94,0.00,,,0.00,HR-IXPWINDi_r2_v1.2.,2016-08-25 04:29:00,
2016-08-25 00:34:00,72.8,70.9,30.05,ENE,73,0.0,0.0,94,0.00,,,0.00,HR-IXPWINDi_r2_v1.2.,2016-08-25 04:34:00,
2016-08-25 00:39:00,72.8,71.2,30.04,ENE,73,0.0,0.0,95,0.00,,,0.00,HR-IXPWINDi_r2_v1.2.,2016-08-25 04:39:00,
2016-08-25 00:44:00,72.9,71.3,30.04,ENE,73,0.0,1.0,95,0.00,,,0.00,HR-IXPWINDi_r2_v1.2.,2016-08-25 04:44:00,
2016-08-25 00:49:00,73.0,71.4,30.04,ENE,73,0.0,1.0,95,0.00,,,0.00,HR-IXPWINDi_r2_v1.2.,2016-08-25 04:49:00,
2016-08-25 00:59:00,73.1,71.5,30.04,ESE,117,0.0,1.0,95,0.00,,,0.00,HR-IXPWINDi_r2_v1.2.,2016-08-25 04:59:00,
2016-08-25 01:04:00,73.2,71.6,30.04,ESE,117,0.0,1.0,95,0.00,,,0.00,HR-IXPWINDi_r2_v1.2.,2016-08-25 05:04:00,
2016-08-25 01:09:00,73.2,71.6,30.04,ESE,117,0.0,1.0,95,0.00,,,0.00,HR-IXPWINDi_r2_v1.2.,2016-08-25 05:09:00,
2016-08-25 01:14:00,73.3,71.7,30.04,ESE,117,0.0,1.0,95,0.00,,,0.00,HR-IXPWINDi_r2_v1.2.,2016-08-25 05:14:00,
2016-08-25 01:19:00,73.3,71.7,30.04,ESE,117,0.0,1.0,95,0.00,,,0.00,HR-IXPWINDi_r2_v1.2.,2016-08-25 05:19:00,
2016-08-25 01:24:00,73.3,71.7,30.03,ESE,117,0.0,1.0,95,0.00,,,0.00,HR-IXPWINDi_r2_v1.2.,2016-08-25 05:24:00,
2016-08-25 01:29:00,73.2,71.6,30.03,ESE,117,0.0,0.0,95,0.00,,,0.00,HR-IXPWINDi_r2_v1.2.,2016-08-25 05:29:00,
2016-08-25 01:34:00,73.2,71.6,30.03,ESE,117,0.0,1.0,95,0.00,,,0.00,HR-IXPWINDi_r2_v1.2.,2016-08-25 05:34:00,
2016-08-25 01:39:00,73.1,71.5,30.03,ESE,117,0.0,1.0,95,0.00,,,0.00,HR-IXPWINDi_r2_v1.2.,2016-08-25 05:39:00,
2016-08-25 01:44:00,73.2,71.6,30.03,ESE,117,0.0,0.0,95,0.00,,,0.00,HR-IXPWINDi_r2_v1.2.,2016-08-25 05:44:00,
2016-08-25 01:49:00,73.2,71.6,30.02,ESE,117,0.0,1.0,95,0.00,,,0.00,HR-IXPWINDi_r2_v1.2.,2016-08-25 05:49:00,
2016-08-25 01:54:00,73.2,71.6,30.02,ESE,117,0.0,1.0,95,0.00,,,0.00,HR-IXPWINDi_r2_v1.2.,2016-08-25 05:54:00,
2016-08-25 01:59:00,73.1,71.5,30.02,ESE,117,0.0,1.0,95,0.00,,,0.00,HR-IXPWINDi_r2_v1.2.,2016-08-25 05:59:00,
2016-08-25 02:04:00,73.1,71.5,30.02,ESE,117,0.0,1.0,95,0.00,,,0.00,HR-IXPWINDi_r2_v1.2.,2016-08-25 06:04:00,
2016-08-25 02:09:00,73.1,71.5,30.02,ESE,117,0.0,1.0,95,0.00,,,0.00,HR-IXPWINDi_r2_v1.2.,2016-08-25 06:09:00,
2016-08-25 02:14:00,73.0,71.4,30.01,ESE,117,0.0,1.0,95,0.00,,,0.00,HR-IXPWINDi_r2_v1.2.,2016-08-25 06:14:00,
2016-08-25 02:19:00,73.0,71.4,30.02,ENE,70,1.0,2.0,95,0.00,,,0.00,HR-IXPWINDi_r2_v1.2.,2016-08-25 06:19:00,
2016-08-25 02:24:00,73.0,71.4,30.02,ENE,71,0.0,2.0,95,0.00,,,0.00,HR-IXPWINDi_r2_v1.2.,2016-08-25 06:24:00,
2016-08-25 02:29:00,73.0,71.4,30.02,ENE,71,0.0,1.0,95,0.00,,,0.00,HR-IXPWINDi_r2_v1.2.,2016-08-25 06:29:00,
2016-08-25 02:34:00,72.9,71.3,30.02,ENE,71,0.0,1.0,95,0.00,,,0.00,HR-IXPWINDi_r2_v1.2.,2016-08-25 06:34:00,
2016-08-25 02:39:00,72.8,71.2,30.01,ENE,71,0.0,1.0,95,0.00,,,0.00,HR-IXPWINDi_r2_v1.2.,2016-08-25 06:39:00,
2016-08-25 02:44:00,72.7,71.1,30.02,ENE,71,0.0,1.0,95,0.00,,,0.00,HR-IXPWINDi_r2_v1.2.,2016-08-25 06:44:00,
2016-08-25 02:49:00,72.6,71.0,30.02,ENE,71,0.0,1.0,95,0.00,,,0.00,HR-IXPWINDi_r2_v1.2.,2016-08-25 06:49:00,
2016-08-25 02:54:00,72.7,71.4,30.01,ENE,71,0.0,1.0,96,0.00,,,0.00,HR-IXPWINDi_r2_v1.2.,2016-08-25 06:54:00,
2016-08-25 02:59:00,72.7,71.4,30.01,ENE,71,0.0,1.0,96,0.00,,,0.00,HR-IXPWINDi_r2_v1.2.,2016-08-25 06:59:00,
2016-08-25 03:04:00,72.7,71.4,30.01,ENE,70,0.0,1.0,96,0.00,,,0.00,HR-IXPWINDi_r2_v1.2.,2016-08-25 07:04:00,
2016-08-25 03:09:00,72.6,71.3,30.01,East,85,0.0,1.0,96,0.00,,,0.00,HR-IXPWINDi_r2_v1.2.,2016-08-25 07:09:00,
2016-08-25 03:14:00,72.6,71.3,30.01,East,85,0.0,1.0,96,0.00,,,0.00,HR-IXPWINDi_r2_v1.2.,2016-08-25 07:14:00,
2016-08-25 03:19:00,72.5,71.2,30.01,East,89,0.0,1.0,96,0.00,,,0.00,HR-IXPWINDi_r2_v1.2.,2016-08-25 07:19:00,
2016-08-25 03:24:00,72.5,71.2,30.01,ENE,75,0.0,2.0,96,0.00,,,0.00,HR-IXPWINDi_r2_v1.2.,2016-08-25 07:24:00,
2016-08-25 03:29:00,72.5,71.2,30.01,ENE,71,0.0,2.0,96,0.00,,,0.00,HR-IXPWINDi_r2_v1.2.,2016-08-25 07:29:00,
2016-08-25 03:34:00,72.5,71.2,30.01,ENE,69,1.0,2.0,96,0.00,,,0.00,HR-IXPWINDi_r2_v1.2.,2016-08-25 07:34:00,
2016-08-25 03:39:00,72.5,71.2,30.02,ESE,103,0.0,2.0,96,0.00,,,0.00,HR-IXPWINDi_r2_v1.2.,2016-08-25 07:39:00,
2016-08-25 03:44:00,72.4,71.1,30.02,ESE,103,0.0,2.0,96,0.00,,,0.00,HR-IXPWINDi_r2_v1.2.,2016-08-25 07:44:00,
2016-08-25 03:49:00,72.3,71.0,30.02,ESE,103,0.0,1.0,96,0.00,,,0.00,HR-IXPWINDi_r2_v1.2.,2016-08-25 07:49:00,
2016-08-25 03:54:00,72.2,70.9,30.02,ESE,103,0.0,0.0,96,0.00,,,0.00,HR-IXPWINDi_r2_v1.2.,2016-08-25 07:54:00,
2016-08-25 03:59:00,72.1,70.8,30.02,ESE,103,0.0,0.0,96,0.00,,,0.00,HR-IXPWINDi_r2_v1.2.,2016-08-25 07:59:00,
2016-08-25 04:04:00,72.1,70.8,30.02,ESE,103,0.0,0.0,96,0.00,,,0.00,HR-IXPWINDi_r2_v1.2.,2016-08-25 08:04:00,
2016-08-25 04:09:00,72.0,70.7,30.02,ESE,103,0.0,0.0,96,0.00,,,0.00,HR-IXPWINDi_r2_v1.2.,2016-08-25 08:09:00,
2016-08-25 04:14:00,71.9,70.6,30.02,ESE,103,0.0,0.0,96,0.00,,,0.00,HR-IXPWINDi_r2_v1.2.,2016-08-25 08:14:00,
2016-08-25 04:19:00,71.9,70.6,30.02,ESE,103,0.0,0.0,96,0.00,,,0.00,HR-IXPWINDi_r2_v1.2.,2016-08-25 08:19:00,
2016-08-25 04:24:00,71.7,70.4,30.03,ESE,103,0.0,0.0,96,0.00,,,0.00,HR-IXPWINDi_r2_v1.2.,2016-08-25 08:24:00,
2016-08-25 04:29:00,71.6,70.3,30.03,ESE,103,0.0,0.0,96,0.00,,,0.00,HR-IXPWINDi_r2_v1.2.,2016-08-25 08:29:00,
2016-08-25 04:34:00,71.5,70.2,30.03,ESE,103,0.0,0.0,96,0.00,,,0.00,HR-IXPWINDi_r2_v1.2.,2016-08-25 08:34:00,
2016-08-25 04:39:00,71.5,70.2,30.03,ESE,103,0.0,0.0,96,0.00,,,0.00,HR-IXPWINDi_r2_v1.2.,2016-08-25 08:39:00,
2016-08-25 04:44:00,71.4,70.1,30.03,ESE,103,0.0,0.0,96,0.00,,,0.00,HR-IXPWINDi_r2_v1.2.,2016-08-25 08:44:00,
2016-08-25 04:49:00,71.4,70.1,30.03,ESE,103,0.0,0.0,96,0.00,,,0.00,HR-IXPWINDi_r2_v1.2.,2016-08-25 08:49:00,
2016-08-25 04:54:00,71.4,70.1,30.03,ESE,103,0.0,0.0,96,0.00,,,0.00,HR-IXPWINDi_r2_v1.2.,2016-08-25 08:54:00,
2016-08-25 04:59:00,71.3,70.0,30.03,ESE,103,0.0,0.0,96,0.00,,,0.00,HR-IXPWINDi_r2_v1.2.,2016-08-25 08:59:00,
2016-08-25 05:04:00,71.2,69.9,30.04,ESE,103,0.0,0.0,96,0.00,,,0.00,HR-IXPWINDi_r2_v1.2.,2016-08-25 09:04:00,
2016-08-25 05:09:00,71.2,70.2,30.03,ESE,103,0.0,0.0,97,0.00,,,0.00,HR-IXPWINDi_r2_v1.2.,2016-08-25 09:09:00,
2016-08-25 05:14:00,71.1,69.8,30.03,ESE,103,0.0,0.0,96,0.00,,,0.00,HR-IXPWINDi_r2_v1.2.,2016-08-25 09:14:00,
2016-08-25 05:19:00,71.0,70.0,30.03,ESE,103,0.0,0.0,97,0.00,,,0.00,HR-IXPWINDi_r2_v1.2.,2016-08-25 09:19:00,
2016-08-25 05:24:00,71.1,70.1,30.04,ESE,103,0.0,0.0,97,0.00,,,0.00,HR-IXPWINDi_r2_v1.2.,2016-08-25 09:24:00,
2016-08-25 05:29:00,71.2,70.2,30.04,ESE,103,0.0,0.0,97,0.00,,,0.00,HR-IXPWINDi_r2_v1.2.,2016-08-25 09:29:00,
2016-08-25 05:34:00,71.3,70.3,30.04,ESE,103,0.0,0.0,97,0.00,,,0.00,HR-IXPWINDi_r2_v1.2.,2016-08-25 09:34:00,
2016-08-25 05:39:00,71.4,70.4,30.04,ESE,103,0.0,1.0,97,0.00,,,0.00,HR-IXPWINDi_r2_v1.2.,2016-08-25 09:39:00,
2016-08-25 05:44:00,71.4,70.4,30.04,ESE,103,0.0,1.0,97,0.00,,,0.00,HR-IXPWINDi_r2_v1.2.,2016-08-25 09:44:00,
2016-08-25 05:49:00,71.3,70.3,30.04,ESE,103,0.0,0.0,97,0.00,,,0.00,HR-IXPWINDi_r2_v1.2.,2016-08-25 09:49:00,
2016-08-25 05:59:00,71.0,70.0,30.04,ESE,103,0.0,0.0,97,0.00,,,0.00,HR-IXPWINDi_r2_v1.2.,2016-08-25 09:59:00,
2016-08-25 06:04:00,71.2,70.2,30.04,ESE,103,0.0,0.0,97,0.00,,,0.00,HR-IXPWINDi_r2_v1.2.,2016-08-25 10:04:00,
2016-08-25 06:09:00,71.3,70.3,30.04,ENE,77,0.0,2.0,97,0.00,,,0.00,HR-IXPWINDi_r2_v1.2.,2016-08-25 10:09:00,
2016-08-25 06:14:00,71.4,70.4,30.04,East,86,0.0,2.0,97,0.00,,,0.00,HR-IXPWINDi_r2_v1.2.,2016-08-25 10:14:00,
2016-08-25 06:19:00,71.3,70.3,30.04,East,86,0.0,2.0,97,0.00,,,0.00,HR-IXPWINDi_r2_v1.2.,2016-08-25 10:19:00,
2016-08-25 06:24:00,71.1,70.1,30.04,East,86,0.0,1.0,97,0.00,,,0.00,HR-IXPWINDi_r2_v1.2.,2016-08-25 10:24:00,
2016-08-25 06:29:00,71.1,70.1,30.04,East,87,0.0,0.0,97,0.00,,,0.00,HR-IXPWINDi_r2_v1.2.,2016-08-25 10:29:00,
2016-08-25 06:34:00,71.0,70.0,30.04,East,87,0.0,1.0,97,0.00,,,0.00,HR-IXPWINDi_r2_v1.2.,2016-08-25 10:34:00,
2016-08-25 06:39:00,71.0,70.0,30.04,East,87,0.0,1.0,97,0.00,,,0.00,HR-IXPWINDi_r2_v1.2.,2016-08-25 10:39:00,
2016-08-25 06:49:00,70.9,69.9,30.05,East,87,0.0,0.0,97,0.00,,,0.00,HR-IXPWINDi_r2_v1.2.,2016-08-25 10:49:00,
2016-08-25 06:59:00,70.8,69.8,30.05,East,87,0.0,1.0,97,0.00,,,0.00,HR-IXPWINDi_r2_v1.2.,2016-08-25 10:59:00,
2016-08-25 07:04:00,70.7,69.7,30.05,East,91,0.0,1.0,97,0.00,,,0.00,HR-IXPWINDi_r2_v1.2.,2016-08-25 11:04:00,
2016-08-25 07:09:00,70.6,69.6,30.05,East,91,0.0,0.0,97,0.00,,,0.00,HR-IXPWINDi_r2_v1.2.,2016-08-25 11:09:00,
2016-08-25 07:14:00,70.5,69.5,30.05,East,90,0.0,0.0,97,0.00,,,0.00,HR-IXPWINDi_r2_v1.2.,2016-08-25 11:14:00,
2016-08-25 07:19:00,70.5,69.5,30.06,East,90,0.0,0.0,97,0.00,,,0.00,HR-IXPWINDi_r2_v1.2.,2016-08-25 11:19:00,
2016-08-25 07:29:00,70.9,69.9,30.05,East,90,0.0,0.0,97,0.00,,,0.00,HR-IXPWINDi_r2_v1.2.,2016-08-25 11:29:00,
2016-08-25 07:34:00,71.1,70.1,30.06,East,91,0.0,0.0,97,0.00,,,0.00,HR-IXPWINDi_r2_v1.2.,2016-08-25 11:34:00,
2016-08-25 07:39:00,71.1,70.1,30.06,East,91,0.0,0.0,97,0.00,,,0.00,HR-IXPWINDi_r2_v1.2.,2016-08-25 11:39:00,
2016-08-25 07:44:00,71.2,70.2,30.06,East,91,0.0,0.0,97,0.00,,,0.00,HR-IXPWINDi_r2_v1.2.,2016-08-25 11:44:00,
2016-08-25 07:49:00,71.2,70.2,30.06,East,90,0.0,0.0,97,0.00,,,0.00,HR-IXPWINDi_r2_v1.2.,2016-08-25 11:49:00,
2016-08-25 07:59:00,71.5,70.5,30.07,East,90,0.0,0.0,97,0.00,,,0.00,HR-IXPWINDi_r2_v1.2.,2016-08-25 11:59:00,
2016-08-25 08:04:00,71.7,70.7,30.07,East,90,0.0,0.0,97,0.00,,,0.00,HR-IXPWINDi_r2_v1.2.,2016-08-25 12:04:00,
2016-08-25 08:09:00,72.0,71.0,30.07,East,91,0.0,0.0,97,0.00,,,0.00,HR-IXPWINDi_r2_v1.2.,2016-08-25 12:09:00,